Main page
METAR-TAF:

METAR-TAF

Airports :

Kuwait City, Kuwait

Kuwait International Airport

latitude: 29-13N, longitude: 047-59E, elevation: 55 m

Current weather observation

The report was made 23 minutes ago, at 10:00 UTC
Wind 18 kt from the North
Temperature 42°C
Humidity 8%
Pressure 1007 hPa
Visibility: 7000 m
Clear sky
(light) , widespread dust

METAR: OKBK 281000Z 35018KT 7000 -BLDU SKC 42/01 Q1007 NOSIG

Time: 13:23 (10:23 UTC)

Forecast

The report was made 5 hours and 38 minutes ago, at 04:45 UTC
Forecast valid from 28 at 06 UTC to 29 at 12 UTC
Wind 12 kt from the North/Northwest with gusts up to 24 kt
Visibility: 8000 m
Clear sky
Temporary
from 28 at 06 UTC to 28 at 15 UTC
Visibility: 3000 m
Blowing dust

TAF: OKBK 280445Z 2806/2912 34012G24KT 8000 SKC TEMPO 2806/2815 3000 BLDU

Weather observations and forecasts of more than 4000 airports (METAR and TAF reports).

The available stations are represented by yellow and red dots on the map.

Hover mouse over dot to see the name of the station.

Then click to see weather observations and forecasts.

To change the map : click on the green buttons with a black cross to zoom in, on the green button with a dash to zoom out, or on the green arrows for adjacent maps.


METAR-TAF: